createdAt,value
2022-08-23T00:02:23.466Z,9.23
2022-08-23T00:07:25.782Z,5.63
2022-08-23T00:12:31.489Z,9.45
2022-08-23T00:17:34.886Z,10.40
2022-08-23T00:22:38.209Z,8.40
2022-08-23T00:27:40.086Z,6.95
2022-08-23T00:32:42.548Z,7.60
2022-08-23T00:37:44.262Z,7.45
2022-08-23T00:43:28.011Z,7.10
2022-08-23T00:48:30.595Z,7.25
2022-08-23T00:53:36.514Z,7.97
2022-08-23T00:58:38.540Z,9.10
2022-08-23T01:03:43.185Z,9.07
2022-08-23T01:08:49.792Z,10.15
2022-08-23T01:13:57.602Z,6.72
2022-08-23T01:19:01.770Z,8.25
2022-08-23T01:24:04.782Z,6.55
2022-08-23T01:29:08.000Z,7.70
2022-08-23T01:34:12.225Z,6.97
2022-08-23T01:39:13.962Z,13.52
2022-08-23T01:44:15.810Z,7.40
2022-08-23T01:49:18.479Z,6.40
2022-08-23T01:54:21.156Z,7.47
2022-08-23T02:04:28.503Z,8.02
2022-08-23T02:09:31.785Z,7.07
2022-08-23T02:14:37.210Z,12.02
2022-08-23T02:19:44.130Z,7.78
2022-08-23T02:24:47.241Z,8.13
2022-08-23T02:29:50.129Z,8.10
2022-08-23T02:40:14.547Z,7.63
2022-08-23T02:45:17.312Z,8.32
2022-08-23T02:50:22.057Z,9.02
2022-08-23T02:55:24.166Z,9.20
2022-08-23T03:00:26.714Z,6.50
2022-08-23T03:05:28.707Z,7.25
2022-08-23T03:10:31.197Z,7.68
2022-08-23T03:15:35.770Z,8.35
2022-08-23T03:20:39.400Z,8.25
2022-08-23T03:25:41.201Z,7.85
2022-08-23T03:30:54.011Z,13.15
2022-08-23T03:36:01.368Z,4.47
2022-08-23T03:41:04.889Z,7.60
2022-08-23T03:46:08.038Z,5.43
2022-08-23T03:51:12.586Z,7.53
2022-08-23T03:56:33.118Z,6.70
2022-08-23T04:01:36.499Z,8.57
2022-08-23T04:06:38.455Z,10.75
2022-08-23T04:11:40.442Z,9.02
2022-08-23T04:16:42.141Z,8.90
2022-08-23T04:26:52.131Z,8.02
2022-08-23T04:31:54.266Z,8.40
2022-08-23T04:36:55.946Z,9.27
2022-08-23T04:42:16.620Z,8.67
2022-08-23T04:47:20.376Z,9.23
2022-08-23T04:52:23.369Z,10.32
2022-08-23T04:57:25.896Z,8.57
2022-08-23T05:02:27.867Z,8.05
2022-08-23T05:07:42.747Z,8.52
2022-08-23T05:12:47.072Z,8.98
2022-08-23T05:17:49.037Z,8.52
2022-08-23T05:22:51.921Z,9.43
2022-08-23T05:28:20.149Z,12.88
2022-08-23T05:33:21.906Z,9.82
2022-08-23T05:38:24.903Z,8.50
2022-08-23T05:43:28.110Z,6.80
2022-08-23T05:48:31.870Z,7.40
2022-08-23T05:53:38.003Z,10.43
2022-08-23T05:58:40.122Z,8.13
2022-08-23T06:03:42.288Z,10.57
2022-08-23T06:08:48.848Z,8.60
2022-08-23T06:13:59.535Z,9.23
2022-08-23T06:19:07.191Z,11.57
2022-08-23T06:24:39.639Z,13.73
2022-08-23T06:29:50.022Z,11.48
2022-08-23T06:35:27.793Z,9.45
2022-08-23T06:40:35.438Z,12.45
2022-08-23T06:46:12.877Z,16.50
2022-08-23T06:51:29.071Z,12.30
2022-08-23T06:56:49.725Z,13.35
2022-08-23T07:01:58.424Z,10.68
2022-08-23T07:07:23.441Z,12.38
2022-08-23T07:12:25.317Z,11.67
2022-08-23T07:17:27.146Z,12.73
2022-08-23T07:22:29.155Z,11.67
2022-08-23T07:27:31.532Z,11.02
2022-08-23T07:32:38.406Z,9.65
2022-08-23T07:37:57.431Z,11.10
2022-08-23T07:43:05.276Z,9.30
2022-08-23T07:48:09.154Z,7.43
2022-08-23T07:53:37.401Z,6.50
2022-08-23T07:58:41.131Z,5.68
2022-08-23T08:04:03.338Z,7.70
2022-08-23T08:09:27.991Z,6.45
2022-08-23T08:14:50.893Z,8.35
2022-08-23T08:20:16.807Z,6.60
2022-08-23T08:26:01.261Z,7.85
2022-08-23T08:31:04.521Z,6.30
2022-08-23T08:36:07.820Z,6.82
2022-08-23T08:41:25.483Z,5.80
2022-08-23T08:46:45.382Z,6.32
2022-08-23T08:51:53.268Z,6.13
2022-08-23T08:56:58.057Z,5.70
2022-08-23T09:02:01.108Z,7.75
2022-08-23T09:07:32.594Z,4.72
2022-08-23T09:12:49.744Z,8.23
2022-08-23T09:17:57.864Z,8.52
2022-08-23T09:23:17.627Z,7.15
2022-08-23T09:28:20.733Z,6.13
2022-08-23T09:33:26.153Z,5.85
2022-08-23T09:38:29.994Z,8.70
2022-08-23T09:43:48.317Z,4.80
2022-08-23T09:48:55.218Z,6.53
2022-08-23T09:54:20.756Z,6.53
2022-08-23T09:59:26.852Z,10.00
2022-08-23T10:04:47.221Z,6.88
2022-08-23T10:09:49.943Z,5.78
2022-08-23T10:14:52.155Z,8.30
2022-08-23T10:20:13.634Z,5.80
2022-08-23T10:25:31.386Z,6.17
2022-08-23T10:31:00.004Z,6.10
2022-08-23T10:36:33.687Z,6.20
2022-08-23T10:42:01.422Z,8.50
2022-08-23T10:47:28.100Z,6.40
2022-08-23T10:52:40.513Z,6.63
2022-08-23T10:57:46.565Z,5.10
2022-08-23T11:02:59.881Z,6.07
2022-08-23T11:08:36.792Z,10.25
2022-08-23T11:13:52.705Z,9.18
2022-08-23T11:18:55.514Z,6.82
2022-08-23T11:24:12.325Z,6.20
2022-08-23T11:29:23.919Z,5.27
2022-08-23T11:35:09.254Z,6.07
2022-08-23T11:40:18.008Z,5.75
2022-08-23T11:45:24.653Z,6.93
2022-08-23T11:50:43.437Z,7.25
2022-08-23T11:56:07.014Z,5.20
2022-08-23T12:01:12.259Z,5.03
2022-08-23T12:06:40.425Z,4.55
2022-08-23T12:11:57.492Z,6.70
2022-08-23T12:17:25.750Z,5.35
2022-08-23T12:22:54.135Z,5.53
2022-08-23T12:28:07.424Z,4.82
2022-08-23T12:33:40.402Z,6.50
2022-08-23T12:39:09.026Z,7.20
2022-08-23T12:44:10.837Z,5.78
2022-08-23T12:49:32.507Z,3.93
2022-08-23T12:54:42.584Z,7.57
2022-08-23T13:00:17.396Z,8.35
2022-08-23T13:05:31.898Z,5.05
2022-08-23T13:10:34.736Z,4.53
2022-08-23T13:15:45.707Z,5.40
2022-08-23T13:20:47.443Z,3.63
2022-08-23T13:25:49.110Z,3.75
2022-08-23T13:31:17.159Z,5.45
2022-08-23T13:36:21.841Z,8.80
2022-08-23T13:41:30.953Z,4.22
2022-08-23T13:46:34.190Z,4.32
2022-08-23T13:51:45.734Z,4.15
2022-08-23T13:56:58.895Z,4.28
2022-08-23T14:02:06.102Z,5.97
2022-08-23T14:07:09.265Z,4.47
2022-08-23T14:12:21.823Z,3.85
2022-08-23T14:17:24.105Z,5.32
2022-08-23T14:22:25.752Z,4.88
2022-08-23T14:32:30.117Z,3.73
2022-08-23T14:42:54.724Z,3.43
2022-08-23T14:47:56.429Z,3.70
2022-08-23T14:52:58.404Z,4.43
2022-08-23T14:58:00.114Z,4.47
2022-08-23T15:03:08.903Z,5.80
2022-08-23T15:08:11.457Z,5.25
2022-08-23T15:13:19.555Z,4.28
2022-08-23T15:18:24.245Z,6.55
2022-08-23T15:28:27.597Z,4.90
2022-08-23T15:33:30.767Z,6.40
2022-08-23T15:38:33.145Z,5.70
2022-08-23T15:43:36.140Z,3.00
2022-08-23T15:48:45.077Z,3.90
2022-08-23T15:53:47.510Z,5.13
2022-08-23T15:58:49.473Z,3.03
2022-08-23T16:03:51.900Z,2.80
2022-08-23T16:08:53.926Z,2.78
2022-08-23T16:13:55.821Z,5.20
2022-08-23T16:18:59.676Z,3.30
2022-08-23T16:24:02.007Z,3.70
2022-08-23T16:29:07.599Z,2.17
2022-08-23T16:34:14.090Z,2.38
2022-08-23T16:39:17.003Z,4.47
2022-08-23T16:44:18.716Z,2.58
2022-08-23T16:49:22.093Z,2.60
2022-08-23T16:54:23.789Z,1.70
2022-08-23T16:59:25.479Z,2.85
2022-08-23T17:04:30.473Z,3.67
2022-08-23T17:09:32.579Z,5.05
2022-08-23T17:14:34.243Z,3.65
2022-08-23T17:19:36.380Z,4.53
2022-08-23T17:24:38.224Z,3.38
2022-08-23T17:29:41.023Z,4.83
2022-08-23T17:34:43.113Z,4.63
2022-08-23T17:39:45.489Z,4.77
2022-08-23T17:49:49.445Z,4.07
2022-08-23T17:54:51.176Z,6.00
2022-08-23T17:59:53.187Z,4.23
2022-08-23T18:04:55.005Z,4.05
2022-08-23T18:09:57.564Z,3.85
2022-08-23T18:15:03.355Z,5.47
2022-08-23T18:20:08.043Z,3.50
2022-08-23T18:25:10.797Z,6.05
2022-08-23T18:30:12.871Z,2.80
2022-08-23T18:35:14.969Z,7.43
2022-08-23T18:40:17.174Z,5.32
2022-08-23T18:45:19.269Z,5.37
2022-08-23T18:50:23.504Z,4.43
2022-08-23T18:55:25.283Z,7.18
2022-08-23T19:00:27.005Z,3.83
2022-08-23T19:05:29.425Z,3.70
2022-08-23T19:10:44.343Z,4.65
2022-08-23T19:15:46.132Z,5.03
2022-08-23T19:20:48.587Z,5.27
2022-08-23T19:25:51.557Z,4.63
2022-08-23T19:30:53.243Z,8.30
2022-08-23T19:35:55.425Z,5.07
2022-08-23T19:41:00.243Z,4.22
2022-08-23T19:46:08.339Z,4.30
2022-08-23T19:51:13.081Z,4.53
2022-08-23T19:56:14.746Z,3.80
2022-08-23T20:01:16.548Z,6.60
2022-08-23T20:06:19.019Z,5.13
2022-08-23T20:16:23.820Z,4.80
2022-08-23T20:21:26.135Z,5.85
2022-08-23T20:26:43.507Z,5.95
2022-08-23T20:31:53.169Z,5.70
2022-08-23T20:36:56.302Z,3.75
2022-08-23T20:41:58.260Z,4.82
2022-08-23T20:47:03.006Z,5.60
2022-08-23T20:52:06.191Z,6.03
2022-08-23T21:02:09.435Z,6.93
2022-08-23T21:07:11.162Z,4.93
2022-08-23T21:12:13.553Z,4.60
2022-08-23T21:17:15.289Z,4.60
2022-08-23T21:22:17.053Z,4.13
2022-08-23T21:27:18.707Z,5.20
2022-08-23T21:32:20.698Z,6.80
2022-08-23T21:37:22.522Z,6.50
2022-08-23T21:42:26.019Z,4.18
2022-08-23T21:47:28.154Z,7.22
2022-08-23T21:52:30.056Z,5.80
2022-08-23T21:57:32.093Z,5.47
2022-08-23T22:02:33.790Z,6.23
2022-08-23T22:07:35.855Z,4.65
2022-08-23T22:12:38.977Z,5.93
2022-08-23T22:17:40.661Z,5.70
2022-08-23T22:22:43.507Z,8.80
2022-08-23T22:27:47.297Z,7.43
2022-08-23T22:32:49.939Z,5.35
2022-08-23T22:38:12.399Z,4.03
2022-08-23T22:43:13.281Z,5.28
2022-08-23T22:48:14.975Z,4.80
2022-08-23T22:53:17.930Z,4.72
2022-08-23T22:58:19.828Z,7.35
2022-08-23T23:03:21.728Z,6.07
2022-08-23T23:13:31.473Z,7.78
2022-08-23T23:18:33.925Z,6.40
2022-08-23T23:23:37.242Z,3.90
2022-08-23T23:28:39.126Z,4.63
2022-08-23T23:33:40.814Z,4.78
2022-08-23T23:38:42.718Z,4.07
2022-08-23T23:43:44.659Z,6.13
2022-08-23T23:48:48.428Z,4.63
2022-08-23T23:53:51.491Z,4.55
2022-08-23T23:58:55.333Z,5.95
